createdAt,value
2022-11-05T00:00:43.082Z,1005.18
2022-11-05T00:01:43.438Z,1005.15
2022-11-05T00:02:43.666Z,1005.20
2022-11-05T00:03:44.098Z,1005.14
2022-11-05T00:04:44.421Z,1005.22
2022-11-05T00:05:44.782Z,1005.16
2022-11-05T00:06:45.059Z,1005.22
2022-11-05T00:07:45.363Z,1005.26
2022-11-05T00:08:45.665Z,1005.26
2022-11-05T00:09:45.913Z,1005.25
2022-11-05T00:10:46.236Z,1005.28
2022-11-05T00:11:46.561Z,1005.24
2022-11-05T00:12:46.840Z,1005.31
2022-11-05T00:13:47.194Z,1005.25
2022-11-05T00:14:47.454Z,1005.30
2022-11-05T00:15:47.875Z,1005.30
2022-11-05T00:16:48.065Z,1005.31
2022-11-05T00:17:48.334Z,1005.30
2022-11-05T00:18:48.633Z,1005.35
2022-11-05T00:19:48.979Z,1005.34
2022-11-05T00:20:49.238Z,1005.42
2022-11-05T00:21:49.600Z,1005.35
2022-11-05T00:22:49.898Z,1005.37
2022-11-05T00:23:50.133Z,1005.40
2022-11-05T00:24:50.428Z,1005.40
2022-11-05T00:25:50.670Z,1005.42
2022-11-05T00:26:50.917Z,1005.47
2022-11-05T00:27:51.226Z,1005.43
2022-11-05T00:28:51.507Z,1005.41
2022-11-05T00:29:51.759Z,1005.40
2022-11-05T00:30:52.038Z,1005.41
2022-11-05T00:31:52.318Z,1005.38
2022-11-05T00:32:52.608Z,1005.47
2022-11-05T00:33:52.939Z,1005.46
2022-11-05T00:34:53.148Z,1005.43
2022-11-05T00:35:53.542Z,1005.46
2022-11-05T00:36:53.829Z,1005.49
2022-11-05T00:37:54.182Z,1005.48
2022-11-05T00:38:54.429Z,1005.53
2022-11-05T00:39:54.751Z,1005.47
2022-11-05T00:40:55.175Z,1005.46
2022-11-05T00:41:55.300Z,1005.50
2022-11-05T00:42:55.642Z,1005.56
2022-11-05T00:43:56.192Z,1005.56
2022-11-05T00:44:56.171Z,1005.52
2022-11-05T00:45:56.452Z,1005.53
2022-11-05T00:46:59.885Z,1005.55
2022-11-05T00:47:57.174Z,1005.57
2022-11-05T00:48:57.375Z,1005.53
2022-11-05T00:49:57.594Z,1005.56
2022-11-05T00:50:58.026Z,1005.53
2022-11-05T00:51:58.204Z,1005.56
2022-11-05T00:52:58.465Z,1005.59
2022-11-05T00:53:58.799Z,1005.65
2022-11-05T00:54:59.060Z,1005.61
2022-11-05T00:55:59.338Z,1005.63
2022-11-05T00:57:04.437Z,1005.64
2022-11-05T00:58:00.968Z,1005.62
2022-11-05T00:59:00.261Z,1005.67
2022-11-05T01:00:00.617Z,1005.66
2022-11-05T01:01:00.848Z,1005.69
2022-11-05T01:02:01.201Z,1005.69
2022-11-05T01:03:01.366Z,1005.71
2022-11-05T01:04:01.801Z,1005.69
2022-11-05T01:05:04.975Z,1005.69
2022-11-05T01:06:04.066Z,1005.73
2022-11-05T01:07:03.152Z,1005.73
2022-11-05T01:08:02.861Z,1005.73
2022-11-05T01:09:03.188Z,1005.71
2022-11-05T01:10:03.509Z,1005.69
2022-11-05T01:11:03.775Z,1005.73
2022-11-05T01:12:04.025Z,1005.73
2022-11-05T01:13:07.569Z,1005.76
2022-11-05T01:14:05.570Z,1005.74
2022-11-05T01:15:04.797Z,1005.71
2022-11-05T01:16:05.056Z,1005.79
2022-11-05T01:17:05.306Z,1005.80
2022-11-05T01:18:05.581Z,1005.82
2022-11-05T01:19:05.855Z,1005.81
2022-11-05T01:20:06.131Z,1005.83
2022-11-05T01:21:06.381Z,1005.87
2022-11-05T01:22:06.597Z,1005.93
2022-11-05T01:23:12.978Z,1005.83
2022-11-05T01:24:08.216Z,1005.87
2022-11-05T01:25:07.506Z,1005.86
2022-11-05T01:26:07.715Z,1005.90
2022-11-05T01:27:08.169Z,1005.91
2022-11-05T01:28:08.434Z,1005.87
2022-11-05T01:29:08.762Z,1005.89
2022-11-05T01:30:09.014Z,1005.87
2022-11-05T01:31:09.285Z,1005.84
2022-11-05T01:32:09.580Z,1005.88
2022-11-05T01:33:10.367Z,1005.90
2022-11-05T01:34:10.148Z,1005.90
2022-11-05T01:35:10.444Z,1005.92
2022-11-05T01:36:10.699Z,1005.92
2022-11-05T01:37:10.976Z,1005.93
2022-11-05T01:38:11.257Z,1005.94
2022-11-05T01:39:11.552Z,1005.91
2022-11-05T01:40:11.808Z,1005.95
2022-11-05T01:41:12.028Z,1005.97
2022-11-05T01:42:12.414Z,1005.93
2022-11-05T01:43:12.963Z,1005.95
2022-11-05T01:44:13.002Z,1005.95
2022-11-05T01:45:13.260Z,1005.97
2022-11-05T01:46:13.559Z,1005.96
2022-11-05T01:47:13.830Z,1006.00
2022-11-05T01:48:14.110Z,1006.01
2022-11-05T01:49:14.513Z,1005.98
2022-11-05T01:50:14.669Z,1006.01
2022-11-05T01:51:14.929Z,1005.98
2022-11-05T01:52:15.213Z,1005.99
2022-11-05T01:53:15.572Z,1006.01
2022-11-05T01:54:15.882Z,1006.03
2022-11-05T01:55:16.121Z,1006.01
2022-11-05T01:56:16.342Z,1005.99
2022-11-05T01:57:16.695Z,1006.03
2022-11-05T01:58:16.999Z,1006.08
2022-11-05T01:59:17.314Z,1006.05
2022-11-05T02:00:17.596Z,1006.03
2022-11-05T02:01:19.002Z,1006.08
2022-11-05T02:02:18.201Z,1006.03
2022-11-05T02:03:18.450Z,1006.05
2022-11-05T02:04:18.679Z,1006.02
2022-11-05T02:05:18.923Z,1006.06
2022-11-05T02:06:19.207Z,1006.02
2022-11-05T02:07:19.463Z,1006.08
2022-11-05T02:08:19.755Z,1006.15
2022-11-05T02:09:20.075Z,1006.11
2022-11-05T02:10:20.301Z,1006.11
2022-11-05T02:11:20.579Z,1006.11
2022-11-05T02:12:20.879Z,1006.19
2022-11-05T02:13:21.189Z,1006.12
2022-11-05T02:14:21.428Z,1006.12
2022-11-05T02:15:21.796Z,1006.23
2022-11-05T02:16:22.035Z,1006.21
2022-11-05T02:17:22.258Z,1006.23
2022-11-05T02:18:22.658Z,1006.26
2022-11-05T02:19:22.926Z,1006.24
2022-11-05T02:20:23.176Z,1006.30
2022-11-05T02:21:23.428Z,1006.25
2022-11-05T02:22:23.729Z,1006.30
2022-11-05T02:23:24.009Z,1006.31
2022-11-05T02:24:24.322Z,1006.35
2022-11-05T02:25:24.591Z,1006.33
2022-11-05T02:26:24.897Z,1006.32
2022-11-05T02:27:25.098Z,1006.27
2022-11-05T02:28:25.500Z,1006.33
2022-11-05T02:29:25.770Z,1006.30
2022-11-05T02:30:26.012Z,1006.33
2022-11-05T02:31:26.251Z,1006.34
2022-11-05T02:32:26.504Z,1006.33
2022-11-05T02:33:26.744Z,1006.36
2022-11-05T02:34:26.963Z,1006.35
2022-11-05T02:35:27.313Z,1006.41
2022-11-05T02:36:27.632Z,1006.47
2022-11-05T02:37:27.992Z,1006.46
2022-11-05T02:38:28.220Z,1006.41
2022-11-05T02:39:28.636Z,1006.49
2022-11-05T02:47:23.888Z,1006.48
2022-11-05T02:48:24.256Z,1006.60
2022-11-05T02:49:24.469Z,1006.60
2022-11-05T02:50:24.773Z,1006.62
2022-11-05T02:51:25.074Z,1006.64
2022-11-05T02:52:25.302Z,1006.66
2022-11-05T02:53:25.600Z,1006.70
2022-11-05T02:54:25.886Z,1006.67
2022-11-05T02:55:26.188Z,1006.68
2022-11-05T02:56:26.468Z,1006.68
2022-11-05T02:57:26.713Z,1006.70
2022-11-05T02:58:26.951Z,1006.72
2022-11-05T02:59:27.307Z,1006.73
2022-11-05T03:00:27.704Z,1006.73
2022-11-05T03:01:28.020Z,1006.73
2022-11-05T03:02:28.360Z,1006.75
2022-11-05T03:03:28.513Z,1006.79
2022-11-05T03:04:28.813Z,1006.76
2022-11-05T03:05:29.154Z,1006.82
2022-11-05T03:06:29.344Z,1006.82
2022-11-05T03:07:29.628Z,1006.81
2022-11-05T03:08:29.902Z,1006.83
2022-11-05T03:09:30.324Z,1006.89
2022-11-05T03:10:31.353Z,1006.91
2022-11-05T03:11:30.655Z,1006.86
2022-11-05T03:12:30.940Z,1006.85
2022-11-05T03:13:31.252Z,1006.92
2022-11-05T03:14:31.503Z,1006.89
2022-11-05T03:15:31.759Z,1006.88
2022-11-05T03:16:32.055Z,1006.86
2022-11-05T03:17:32.347Z,1006.91
2022-11-05T03:18:32.606Z,1006.94
2022-11-05T03:19:32.864Z,1006.91
2022-11-05T03:20:33.124Z,1006.93
2022-11-05T03:21:33.411Z,1006.98
2022-11-05T03:22:33.684Z,1007.01
2022-11-05T03:23:34.069Z,1007.02
2022-11-05T03:24:35.123Z,1006.99
2022-11-05T03:25:34.427Z,1006.98
2022-11-05T03:26:34.688Z,1007.06
2022-11-05T03:27:35.019Z,1007.01
2022-11-05T03:28:35.260Z,1007.05
2022-11-05T03:29:35.568Z,1007.12
2022-11-05T03:30:35.888Z,1007.12
2022-11-05T03:31:36.198Z,1007.11
2022-11-05T03:32:36.529Z,1007.09
2022-11-05T03:33:36.924Z,1007.11
2022-11-05T03:34:37.051Z,1007.17
2022-11-05T03:35:37.402Z,1007.14
2022-11-05T03:36:37.631Z,1007.17
2022-11-05T03:37:37.859Z,1007.13
2022-11-05T03:38:38.220Z,1007.14
2022-11-05T03:39:38.516Z,1007.21
2022-11-05T03:40:38.762Z,1007.23
2022-11-05T03:41:40.015Z,1007.21
2022-11-05T03:42:39.464Z,1007.22
2022-11-05T03:43:39.615Z,1007.24
2022-11-05T03:44:39.892Z,1007.28
2022-11-05T03:45:40.181Z,1007.29
2022-11-05T03:46:40.404Z,1007.29
2022-11-05T03:47:40.774Z,1007.29
2022-11-05T03:48:42.009Z,1007.27
2022-11-05T03:49:42.322Z,1007.32
2022-11-05T03:50:41.814Z,1007.26
2022-11-05T03:51:41.882Z,1007.34
2022-11-05T03:52:42.113Z,1007.34
2022-11-05T03:53:42.460Z,1007.32
2022-11-05T03:54:42.746Z,1007.37
2022-11-05T03:55:43.039Z,1007.38
2022-11-05T03:56:43.274Z,1007.44
2022-11-05T03:57:43.516Z,1007.43
2022-11-05T03:58:43.817Z,1007.45
2022-11-05T04:02:05.759Z,1007.41
2022-11-05T04:03:05.836Z,1007.39
2022-11-05T04:04:06.023Z,1007.45
2022-11-05T04:05:06.407Z,1007.43
2022-11-05T04:06:06.766Z,1007.50
2022-11-05T04:07:07.178Z,1007.50
2022-11-05T04:08:11.472Z,1007.51
2022-11-05T04:09:08.552Z,1007.50
2022-11-05T04:10:07.814Z,1007.45
2022-11-05T04:11:08.165Z,1007.50
2022-11-05T04:12:08.487Z,1007.51
2022-11-05T04:13:09.046Z,1007.51
2022-11-05T04:14:09.105Z,1007.53
2022-11-05T04:15:09.440Z,1007.53
2022-11-05T04:16:09.775Z,1007.53
2022-11-05T04:17:10.144Z,1007.54
2022-11-05T04:18:10.391Z,1007.58
2022-11-05T04:19:10.746Z,1007.54
2022-11-05T04:20:10.985Z,1007.56
2022-11-05T04:21:11.298Z,1007.56
2022-11-05T04:22:11.629Z,1007.49
2022-11-05T04:23:12.316Z,1007.53
2022-11-05T04:24:12.192Z,1007.50
2022-11-05T04:25:12.528Z,1007.56
2022-11-05T04:26:12.867Z,1007.51
2022-11-05T04:27:13.196Z,1007.56
2022-11-05T04:28:13.560Z,1007.53
2022-11-05T04:29:13.748Z,1007.59
2022-11-05T04:30:14.075Z,1007.61
2022-11-05T04:31:14.380Z,1007.63
2022-11-05T04:32:14.713Z,1007.68
2022-11-05T04:33:15.301Z,1007.67
2022-11-05T04:34:15.293Z,1007.73
2022-11-05T04:35:15.602Z,1007.72
2022-11-05T04:36:15.915Z,1007.73
2022-11-05T04:37:16.235Z,1007.76
2022-11-05T04:38:16.524Z,1007.77
2022-11-05T04:39:16.852Z,1007.73
2022-11-05T04:40:17.143Z,1007.74
2022-11-05T04:41:17.441Z,1007.73
2022-11-05T04:42:17.776Z,1007.77
2022-11-05T04:43:18.625Z,1007.77
2022-11-05T04:44:18.365Z,1007.69
2022-11-05T04:45:18.655Z,1007.70
2022-11-05T04:46:18.934Z,1007.71
2022-11-05T04:47:19.236Z,1007.75
2022-11-05T04:48:19.533Z,1007.76
2022-11-05T04:49:19.785Z,1007.77
2022-11-05T04:50:20.056Z,1007.78
2022-11-05T04:51:20.296Z,1007.79
2022-11-05T04:52:20.562Z,1007.79
2022-11-05T04:53:20.854Z,1007.74
2022-11-05T04:54:21.109Z,1007.81
2022-11-05T04:55:21.365Z,1007.79
2022-11-05T04:56:21.619Z,1007.82
2022-11-05T04:57:21.896Z,1007.82
2022-11-05T04:58:22.129Z,1007.81
2022-11-05T04:59:22.387Z,1007.89
2022-11-05T05:00:22.617Z,1007.87
2022-11-05T05:01:23.009Z,1007.90
2022-11-05T05:02:23.164Z,1007.89
2022-11-05T05:03:23.409Z,1007.93
2022-11-05T05:04:23.648Z,1007.94
2022-11-05T05:05:23.896Z,1007.93
2022-11-05T05:06:24.132Z,1007.92
2022-11-05T05:07:24.375Z,1007.97
2022-11-05T05:08:24.610Z,1007.91
2022-11-05T05:09:24.859Z,1007.90
2022-11-05T05:10:25.090Z,1007.94
2022-11-05T05:11:25.333Z,1007.95
2022-11-05T05:12:25.563Z,1008.06
2022-11-05T05:13:25.821Z,1008.02
2022-11-05T05:14:26.044Z,1008.04
2022-11-05T05:15:26.447Z,1008.07
2022-11-05T05:16:26.702Z,1008.07
2022-11-05T05:17:26.946Z,1008.09
2022-11-05T05:18:27.179Z,1008.04
2022-11-05T05:19:27.483Z,1008.06
2022-11-05T05:20:27.744Z,1008.04
2022-11-05T05:21:28.043Z,1008.12
2022-11-05T05:22:28.372Z,1008.06
2022-11-05T05:23:28.756Z,1008.07
2022-11-05T05:24:28.981Z,1008.10
2022-11-05T05:25:29.283Z,1008.09
2022-11-05T05:26:29.502Z,1008.08
2022-11-05T05:27:29.767Z,1008.11
2022-11-05T05:28:30.053Z,1008.10
2022-11-05T05:29:30.346Z,1008.13
2022-11-05T05:30:30.605Z,1008.10
2022-11-05T05:31:30.879Z,1008.14
2022-11-05T05:32:31.104Z,1008.08
2022-11-05T05:33:31.384Z,1008.15
2022-11-05T05:34:31.728Z,1008.10
2022-11-05T05:35:31.927Z,1008.06
2022-11-05T05:36:32.219Z,1008.13
2022-11-05T05:37:32.450Z,1008.14
2022-11-05T05:38:32.687Z,1008.17
2022-11-05T05:39:32.938Z,1008.22
2022-11-05T05:40:33.176Z,1008.18
2022-11-05T05:41:33.419Z,1008.23
2022-11-05T05:42:37.474Z,1008.24
2022-11-05T05:43:34.939Z,1008.23
2022-11-05T05:44:34.255Z,1008.30
2022-11-05T05:45:34.479Z,1008.33
2022-11-05T05:46:34.719Z,1008.35
2022-11-05T05:47:34.967Z,1008.39
2022-11-05T05:48:35.219Z,1008.42
2022-11-05T05:49:35.439Z,1008.44
2022-11-05T05:50:35.831Z,1008.41
2022-11-05T05:51:36.059Z,1008.48
2022-11-05T05:52:36.287Z,1008.46
2022-11-05T05:53:36.691Z,1008.41
2022-11-05T05:54:42.329Z,1008.44
2022-11-05T05:55:38.250Z,1008.47
2022-11-05T05:56:37.641Z,1008.45
2022-11-05T05:57:37.853Z,1008.47
2022-11-05T05:58:38.115Z,1008.45
2022-11-05T05:59:38.364Z,1008.43
2022-11-05T06:00:38.607Z,1008.46
2022-11-05T06:01:38.900Z,1008.41
2022-11-05T06:02:39.213Z,1008.42
2022-11-05T06:03:39.461Z,1008.46
2022-11-05T06:04:39.692Z,1008.44
2022-11-05T06:05:40.061Z,1008.54
2022-11-05T06:06:40.293Z,1008.53
2022-11-05T06:07:40.555Z,1008.62
2022-11-05T06:08:40.823Z,1008.57
2022-11-05T06:09:41.149Z,1008.56
2022-11-05T06:10:41.408Z,1008.66
2022-11-05T06:11:41.694Z,1008.67
2022-11-05T06:12:41.935Z,1008.71
2022-11-05T06:13:42.246Z,1008.72
2022-11-05T06:14:42.505Z,1008.77
2022-11-05T06:15:42.814Z,1008.74
2022-11-05T06:16:43.067Z,1008.76
2022-11-05T06:17:43.397Z,1008.81
2022-11-05T06:18:43.637Z,1008.86
2022-11-05T06:19:43.909Z,1008.87
2022-11-05T06:20:44.199Z,1008.92
2022-11-05T06:21:44.583Z,1008.94
2022-11-05T06:22:44.725Z,1008.95
2022-11-05T06:23:45.030Z,1008.96
2022-11-05T06:24:45.276Z,1008.96
2022-11-05T06:25:45.577Z,1008.99
2022-11-05T06:26:45.917Z,1009.01
2022-11-05T06:27:46.078Z,1009.06
2022-11-05T06:28:46.372Z,1008.99
2022-11-05T06:29:46.640Z,1009.04
2022-11-05T06:30:46.900Z,1009.03
2022-11-05T06:31:47.161Z,1009.01
2022-11-05T06:32:47.459Z,1009.08
2022-11-05T06:33:47.747Z,1009.07
2022-11-05T06:34:48.132Z,1009.07
2022-11-05T06:35:48.350Z,1009.09
2022-11-05T06:36:48.640Z,1009.10
2022-11-05T06:37:48.966Z,1009.10
2022-11-05T06:38:49.306Z,1009.10
2022-11-05T06:39:49.656Z,1009.16
2022-11-05T06:40:49.804Z,1009.16
2022-11-05T06:42:16.518Z,1009.17
2022-11-05T06:42:51.328Z,1009.19
2022-11-05T06:43:50.560Z,1009.23
2022-11-05T06:44:50.840Z,1009.27
2022-11-05T06:45:51.214Z,1009.30
2022-11-05T06:46:51.471Z,1009.29
2022-11-05T06:47:51.772Z,1009.25
2022-11-05T06:48:52.044Z,1009.28
2022-11-05T06:49:52.318Z,1009.33
2022-11-05T06:50:52.621Z,1009.32
2022-11-05T06:51:52.895Z,1009.34
2022-11-05T06:52:53.207Z,1009.36
2022-11-05T06:53:53.536Z,1009.33
2022-11-05T06:54:53.806Z,1009.38
2022-11-05T06:55:54.094Z,1009.43
2022-11-05T06:56:54.376Z,1009.41
2022-11-05T06:57:54.761Z,1009.39
2022-11-05T06:58:54.933Z,1009.43
2022-11-05T07:00:00.616Z,1009.46
2022-11-05T07:00:56.615Z,1009.46
2022-11-05T07:01:55.820Z,1009.53
2022-11-05T07:02:55.994Z,1009.47
2022-11-05T07:03:56.420Z,1009.50
2022-11-05T07:04:56.613Z,1009.57
2022-11-05T07:05:56.872Z,1009.59
2022-11-05T07:06:57.192Z,1009.59
2022-11-05T07:07:57.536Z,1009.60
2022-11-05T07:08:57.775Z,1009.58
2022-11-05T07:09:58.108Z,1009.59
2022-11-05T07:10:58.384Z,1009.68
2022-11-05T07:11:58.714Z,1009.69
2022-11-05T07:13:02.386Z,1009.65
2022-11-05T07:14:00.437Z,1009.68
2022-11-05T07:14:59.549Z,1009.74
2022-11-05T07:16:00.037Z,1009.73
2022-11-05T07:17:00.137Z,1009.79
2022-11-05T07:18:00.527Z,1009.80
2022-11-05T07:19:00.720Z,1009.82
2022-11-05T07:20:01.032Z,1009.83
2022-11-05T07:21:01.417Z,1009.84
2022-11-05T07:22:01.563Z,1009.88
2022-11-05T07:23:01.893Z,1009.89
2022-11-05T07:24:02.216Z,1009.84
2022-11-05T07:25:02.579Z,1009.91
2022-11-05T07:26:02.784Z,1009.90
2022-11-05T07:27:03.192Z,1009.92
2022-11-05T07:28:03.365Z,1009.89
2022-11-05T07:29:03.703Z,1009.92
2022-11-05T07:30:04.029Z,1009.86
2022-11-05T07:31:04.399Z,1009.87
2022-11-05T07:32:04.594Z,1009.87
2022-11-05T07:33:04.819Z,1009.86
2022-11-05T07:34:05.057Z,1009.89
2022-11-05T07:35:05.296Z,1009.85
2022-11-05T07:36:05.551Z,1009.82
2022-11-05T07:37:05.853Z,1009.87
2022-11-05T07:38:06.088Z,1009.86
2022-11-05T07:39:06.404Z,1009.88
2022-11-05T07:40:06.784Z,1009.87
2022-11-05T07:41:07.056Z,1009.90
2022-11-05T07:42:07.415Z,1009.87
2022-11-05T07:43:07.705Z,1009.93
2022-11-05T07:44:07.954Z,1009.88
2022-11-05T07:45:08.210Z,1009.93
2022-11-05T07:46:13.522Z,1009.94
2022-11-05T07:47:09.853Z,1009.92
2022-11-05T07:48:09.078Z,1009.91
2022-11-05T07:49:09.344Z,1009.87
2022-11-05T07:50:09.729Z,1009.93
2022-11-05T07:51:09.956Z,1009.85
2022-11-05T07:52:10.239Z,1009.88
2022-11-05T07:53:10.812Z,1009.88
2022-11-05T07:54:10.766Z,1009.82
2022-11-05T07:55:11.002Z,1009.82
2022-11-05T07:56:11.369Z,1009.84
2022-11-05T07:57:11.669Z,1009.88
2022-11-05T07:58:11.937Z,1009.83
2022-11-05T07:59:12.232Z,1009.87
2022-11-05T08:00:12.531Z,1009.89
2022-11-05T08:01:12.940Z,1009.95
2022-11-05T08:02:13.201Z,1009.97
2022-11-05T08:03:14.110Z,1009.98
2022-11-05T08:04:13.851Z,1010.03
2022-11-05T08:05:13.911Z,1010.01
2022-11-05T08:06:14.186Z,1010.04
2022-11-05T08:07:14.542Z,1010.01
2022-11-05T08:08:14.783Z,1010.05
2022-11-05T08:09:15.043Z,1010.01
2022-11-05T08:10:15.466Z,1010.08
2022-11-05T08:11:15.548Z,1010.02
2022-11-05T08:12:15.915Z,1010.05
2022-11-05T08:13:16.380Z,1010.07
2022-11-05T08:14:16.494Z,1010.10
2022-11-05T08:15:16.742Z,1010.13
2022-11-05T08:16:17.054Z,1010.13
2022-11-05T08:17:18.523Z,1010.14
2022-11-05T08:18:17.639Z,1010.16
2022-11-05T08:19:17.843Z,1010.13
2022-11-05T08:20:18.187Z,1010.17
2022-11-05T08:21:18.403Z,1010.17
2022-11-05T08:22:18.688Z,1010.19
2022-11-05T08:23:19.045Z,1010.21
2022-11-05T08:24:19.204Z,1010.24
2022-11-05T08:25:19.578Z,1010.27
2022-11-05T08:26:19.795Z,1010.26
2022-11-05T08:27:20.115Z,1010.20
2022-11-05T08:28:20.550Z,1010.23
2022-11-05T08:29:20.886Z,1010.31
2022-11-05T08:30:21.006Z,1010.30
2022-11-05T08:31:21.308Z,1010.30
2022-11-05T08:32:21.616Z,1010.32
2022-11-05T08:33:21.908Z,1010.32
2022-11-05T08:34:22.195Z,1010.36
2022-11-05T08:35:22.528Z,1010.31
2022-11-05T08:36:22.838Z,1010.34
2022-11-05T08:37:23.160Z,1010.34
2022-11-05T08:38:23.495Z,1010.30
2022-11-05T08:39:23.838Z,1010.36
2022-11-05T08:40:24.385Z,1010.35
2022-11-05T08:41:24.389Z,1010.32
2022-11-05T08:42:24.588Z,1010.34
2022-11-05T08:43:24.902Z,1010.30
2022-11-05T08:44:25.228Z,1010.32
2022-11-05T08:45:25.520Z,1010.30
2022-11-05T08:46:26.002Z,1010.35
2022-11-05T08:47:26.187Z,1010.34
2022-11-05T08:48:26.490Z,1010.34
2022-11-05T08:49:26.782Z,1010.37
2022-11-05T08:50:27.138Z,1010.38
2022-11-05T08:51:27.473Z,1010.42
2022-11-05T08:52:27.758Z,1010.43
2022-11-05T08:53:27.972Z,1010.43
2022-11-05T08:54:28.334Z,1010.48
2022-11-05T08:55:28.535Z,1010.43
2022-11-05T08:56:28.855Z,1010.52
2022-11-05T08:57:29.203Z,1010.50
2022-11-05T08:58:29.454Z,1010.54
2022-11-05T08:59:29.710Z,1010.53
2022-11-05T09:00:29.906Z,1010.50
2022-11-05T09:01:30.511Z,1010.53
2022-11-05T09:02:30.569Z,1010.50
2022-11-05T09:03:31.557Z,1010.47
2022-11-05T09:04:31.865Z,1010.45
2022-11-05T09:05:31.560Z,1010.47
2022-11-05T09:06:33.225Z,1010.49
2022-11-05T09:07:32.208Z,1010.48
2022-11-05T09:08:32.276Z,1010.50
2022-11-05T09:09:33.268Z,1010.46
2022-11-05T09:10:32.858Z,1010.50
2022-11-05T09:12:05.252Z,1010.50
2022-11-05T09:12:35.826Z,1010.51
2022-11-05T09:13:34.387Z,1010.50
2022-11-05T09:14:34.787Z,1010.47
2022-11-05T09:15:34.995Z,1010.53
2022-11-05T09:16:34.568Z,1010.60
2022-11-05T09:17:34.862Z,1010.51
2022-11-05T09:18:35.093Z,1010.56
2022-11-05T09:19:39.635Z,1010.60
2022-11-05T09:20:35.680Z,1010.67
2022-11-05T09:21:35.935Z,1010.66
2022-11-05T09:22:42.088Z,1010.68
2022-11-05T09:23:37.457Z,1010.71
2022-11-05T09:24:36.760Z,1010.66
2022-11-05T09:25:37.011Z,1010.78
2022-11-05T09:26:37.272Z,1010.74
2022-11-05T09:27:37.557Z,1010.76
2022-11-05T09:28:37.820Z,1010.77
2022-11-05T09:29:38.070Z,1010.81
2022-11-05T09:30:38.384Z,1010.85
2022-11-05T09:31:38.634Z,1010.82
2022-11-05T09:32:38.904Z,1010.86
2022-11-05T09:33:39.160Z,1010.86
2022-11-05T09:34:39.414Z,1010.88
2022-11-05T09:35:39.685Z,1010.89
2022-11-05T09:36:39.957Z,1010.89
2022-11-05T09:37:40.243Z,1010.91
2022-11-05T09:38:40.533Z,1010.91
2022-11-05T09:39:40.834Z,1010.95
2022-11-05T09:40:41.087Z,1011.00
2022-11-05T09:41:41.350Z,1010.92
2022-11-05T09:42:41.633Z,1010.94
2022-11-05T09:43:41.896Z,1011.00
2022-11-05T09:44:42.166Z,1011.01
2022-11-05T09:45:42.449Z,1011.03
2022-11-05T09:46:42.696Z,1011.06
2022-11-05T09:47:42.974Z,1011.01
2022-11-05T09:48:43.245Z,1011.06
2022-11-05T09:49:43.511Z,1011.07
2022-11-05T09:50:43.807Z,1011.00
2022-11-05T09:51:44.068Z,1011.05
2022-11-05T09:52:44.308Z,1011.11
2022-11-05T09:53:44.557Z,1011.13
2022-11-05T09:54:44.834Z,1011.10
2022-11-05T09:55:45.096Z,1011.11
2022-11-05T09:56:45.328Z,1011.05
2022-11-05T09:57:45.578Z,1011.05
2022-11-05T09:58:45.820Z,1011.14
2022-11-05T09:59:46.070Z,1011.08
2022-11-05T10:00:46.471Z,1011.09
2022-11-05T10:01:46.684Z,1011.19
2022-11-05T10:02:46.944Z,1011.07
2022-11-05T10:03:47.071Z,1011.09
2022-11-05T10:04:47.320Z,1011.09
2022-11-05T10:05:47.630Z,1011.16
2022-11-05T10:06:47.962Z,1011.07
2022-11-05T10:07:48.271Z,1011.14
2022-11-05T10:08:48.596Z,1011.16
2022-11-05T10:09:48.871Z,1011.17
2022-11-05T10:10:49.214Z,1011.12
2022-11-05T10:11:49.528Z,1011.16
2022-11-05T10:12:50.902Z,1011.19
2022-11-05T10:13:50.165Z,1011.23
2022-11-05T10:14:50.510Z,1011.25
2022-11-05T10:15:50.748Z,1011.21
2022-11-05T10:16:50.887Z,1011.20
2022-11-05T10:17:51.205Z,1011.21
2022-11-05T10:18:51.597Z,1011.24
2022-11-05T10:19:51.713Z,1011.21
2022-11-05T10:20:52.018Z,1011.30
2022-11-05T10:22:06.006Z,1011.28
2022-11-05T10:22:53.634Z,1011.24
2022-11-05T10:23:52.845Z,1011.29
2022-11-05T10:24:53.125Z,1011.28
2022-11-05T10:25:53.487Z,1011.27
2022-11-05T10:26:53.661Z,1011.30
2022-11-05T10:27:53.955Z,1011.26
2022-11-05T10:28:54.388Z,1011.24
2022-11-05T10:29:54.577Z,1011.25
2022-11-05T10:30:54.846Z,1011.25
2022-11-05T10:31:55.172Z,1011.28
2022-11-05T10:32:55.507Z,1011.28
2022-11-05T10:33:56.067Z,1011.27
2022-11-05T10:34:56.028Z,1011.23
2022-11-05T10:35:56.330Z,1011.20
2022-11-05T10:36:56.629Z,1011.19
2022-11-05T10:37:56.926Z,1011.22
2022-11-05T10:38:57.248Z,1011.22
2022-11-05T10:39:57.708Z,1011.28
2022-11-05T10:40:57.973Z,1011.28
2022-11-05T10:41:58.320Z,1011.28
2022-11-05T10:42:58.510Z,1011.27
2022-11-05T10:43:58.644Z,1011.30
2022-11-05T10:44:58.953Z,1011.29
2022-11-05T10:45:59.306Z,1011.28
2022-11-05T10:46:59.463Z,1011.32
2022-11-05T10:47:59.893Z,1011.32
2022-11-05T10:49:00.034Z,1011.37
2022-11-05T10:50:00.297Z,1011.34
2022-11-05T10:51:00.593Z,1011.36
2022-11-05T10:52:00.897Z,1011.40
2022-11-05T10:53:01.171Z,1011.43
2022-11-05T10:54:02.272Z,1011.45
2022-11-05T10:55:01.773Z,1011.50
2022-11-05T10:56:01.960Z,1011.50
2022-11-05T10:57:02.262Z,1011.50
2022-11-05T10:58:02.585Z,1011.52
2022-11-05T10:59:05.592Z,1011.51
2022-11-05T11:00:04.129Z,1011.54
2022-11-05T11:01:03.566Z,1011.50
2022-11-05T11:02:03.793Z,1011.51
2022-11-05T11:03:03.997Z,1011.58
2022-11-05T11:04:04.262Z,1011.50
2022-11-05T11:05:04.535Z,1011.56
2022-11-05T11:06:04.808Z,1011.55
2022-11-05T11:07:05.083Z,1011.53
2022-11-05T11:08:05.356Z,1011.53
2022-11-05T11:09:05.632Z,1011.56
2022-11-05T11:10:05.919Z,1011.57
2022-11-05T11:11:06.238Z,1011.58
2022-11-05T11:12:06.551Z,1011.57
2022-11-05T11:13:06.799Z,1011.61
2022-11-05T11:14:07.050Z,1011.63
2022-11-05T11:15:07.320Z,1011.58
2022-11-05T11:16:07.579Z,1011.62
2022-11-05T11:17:07.818Z,1011.61
2022-11-05T11:18:08.104Z,1011.55
2022-11-05T11:19:08.412Z,1011.64
2022-11-05T11:20:08.845Z,1011.57
2022-11-05T11:21:08.982Z,1011.57
2022-11-05T11:22:09.291Z,1011.60
2022-11-05T11:23:09.959Z,1011.57
2022-11-05T11:24:09.806Z,1011.61
2022-11-05T11:25:10.074Z,1011.48
2022-11-05T11:26:10.703Z,1011.55
2022-11-05T11:27:10.615Z,1011.57
2022-11-05T11:28:10.925Z,1011.53
2022-11-05T11:29:11.216Z,1011.52
2022-11-05T11:30:11.504Z,1011.60
2022-11-05T11:31:11.875Z,1011.61
2022-11-05T11:32:12.218Z,1011.55
2022-11-05T11:33:12.801Z,1011.60
2022-11-05T11:34:12.645Z,1011.64
2022-11-05T11:35:13.047Z,1011.55
2022-11-05T11:36:13.227Z,1011.61
2022-11-05T11:37:19.068Z,1011.64
2022-11-05T11:38:14.660Z,1011.59
2022-11-05T11:39:14.920Z,1011.63
2022-11-05T11:40:14.439Z,1011.62
2022-11-05T11:41:14.688Z,1011.70
2022-11-05T11:42:14.968Z,1011.59
2022-11-05T11:43:15.397Z,1011.64
2022-11-05T11:44:15.530Z,1011.58
2022-11-05T11:45:16.019Z,1011.65
2022-11-05T11:46:16.026Z,1011.63
2022-11-05T11:47:16.388Z,1011.66
2022-11-05T11:48:16.764Z,1011.65
2022-11-05T11:49:16.940Z,1011.63
2022-11-05T11:50:17.292Z,1011.65
2022-11-05T11:51:17.449Z,1011.64
2022-11-05T11:52:17.712Z,1011.68
2022-11-05T11:53:17.952Z,1011.59
2022-11-05T11:54:18.259Z,1011.62
2022-11-05T11:55:18.515Z,1011.65
2022-11-05T11:56:18.988Z,1011.65
2022-11-05T11:57:19.135Z,1011.63
2022-11-05T11:58:19.421Z,1011.65
2022-11-05T11:59:19.727Z,1011.69
2022-11-05T12:00:20.153Z,1011.68
2022-11-05T12:01:20.339Z,1011.65
2022-11-05T12:02:21.113Z,1011.66
2022-11-05T12:03:21.380Z,1011.71
2022-11-05T12:04:21.229Z,1011.65
2022-11-05T12:05:21.564Z,1011.75
2022-11-05T12:06:21.906Z,1011.68
2022-11-05T12:07:22.106Z,1011.63
2022-11-05T12:08:22.469Z,1011.66
2022-11-05T12:09:22.745Z,1011.65
2022-11-05T12:10:23.068Z,1011.62
2022-11-05T12:11:23.328Z,1011.66
2022-11-05T12:12:23.628Z,1011.71
2022-11-05T12:13:23.890Z,1011.73
2022-11-05T12:14:24.246Z,1011.72
2022-11-05T12:15:24.569Z,1011.70
2022-11-05T12:16:25.053Z,1011.70
2022-11-05T12:17:25.215Z,1011.77
2022-11-05T12:18:25.513Z,1011.71